sensor_id;sensor_type;location;lat;lon;timestamp;pressure;altitude;pressure_sealevel;temperature;humidity
4767;BME280;2397;53.576;9.746;2023-03-03T00:00:52;102453.09;;;0.23;100.00
4767;BME280;2397;53.576;9.746;2023-03-03T00:03:21;102447.75;;;0.20;100.00
4767;BME280;2397;53.576;9.746;2023-03-03T00:05:49;102458.31;;;0.14;100.00
4767;BME280;2397;53.576;9.746;2023-03-03T00:08:16;102458.06;;;0.21;100.00
4767;BME280;2397;53.576;9.746;2023-03-03T00:10:43;102447.38;;;0.25;100.00
4767;BME280;2397;53.576;9.746;2023-03-03T00:13:19;102445.22;;;0.30;100.00
4767;BME280;2397;53.576;9.746;2023-03-03T00:15:46;102447.75;;;0.30;100.00
4767;BME280;2397;53.576;9.746;2023-03-03T00:18:34;102442.00;;;0.32;100.00
4767;BME280;2397;53.576;9.746;2023-03-03T00:21:02;102437.69;;;0.31;100.00
4767;BME280;2397;53.576;9.746;2023-03-03T00:23:35;102445.22;;;0.30;100.00
4767;BME280;2397;53.576;9.746;2023-03-03T00:26:17;102441.25;;;0.33;100.00
4767;BME280;2397;53.576;9.746;2023-03-03T00:28:48;102440.59;;;0.36;100.00
4767;BME280;2397;53.576;9.746;2023-03-03T00:31:35;102438.06;;;0.26;100.00
4767;BME280;2397;53.576;9.746;2023-03-03T00:34:23;102448.25;;;0.15;100.00
4767;BME280;2397;53.576;9.746;2023-03-03T00:36:55;102449.94;;;0.15;100.00
4767;BME280;2397;53.576;9.746;2023-03-03T00:39:30;102443.41;;;0.08;100.00
4767;BME280;2397;53.576;9.746;2023-03-03T00:41:59;102444.28;;;0.09;100.00
4767;BME280;2397;53.576;9.746;2023-03-03T00:47:12;102449.13;;;0.06;100.00
4767;BME280;2397;53.576;9.746;2023-03-03T00:49:43;102443.53;;;-0.01;100.00
4767;BME280;2397;53.576;9.746;2023-03-03T00:52:19;102453.72;;;-0.01;100.00
4767;BME280;2397;53.576;9.746;2023-03-03T00:54:46;102452.84;;;-0.01;100.00
4767;BME280;2397;53.576;9.746;2023-03-03T00:57:12;102452.47;;;0.05;100.00
4767;BME280;2397;53.576;9.746;2023-03-03T00:59:39;102453.72;;;0.10;100.00
4767;BME280;2397;53.576;9.746;2023-03-03T01:02:06;102439.75;;;0.15;100.00
4767;BME280;2397;53.576;9.746;2023-03-03T01:04:32;102438.19;;;0.17;100.00
4767;BME280;2397;53.576;9.746;2023-03-03T01:06:58;102445.09;;;0.18;100.00
4767;BME280;2397;53.576;9.746;2023-03-03T01:09:25;102445.59;;;0.14;100.00
4767;BME280;2397;53.576;9.746;2023-03-03T01:11:51;102439.19;;;0.09;100.00
4767;BME280;2397;53.576;9.746;2023-03-03T01:14:18;102442.03;;;0.02;100.00
4767;BME280;2397;53.576;9.746;2023-03-03T01:16:44;102448.63;;;-0.01;100.00
4767;BME280;2397;53.576;9.746;2023-03-03T01:19:11;102437.94;;;0.04;100.00
4767;BME280;2397;53.576;9.746;2023-03-03T01:21:37;102437.19;;;0.05;100.00
4767;BME280;2397;53.576;9.746;2023-03-03T01:24:05;102445.47;;;0.02;100.00
4767;BME280;2397;53.576;9.746;2023-03-03T01:26:31;102444.56;;;-0.09;100.00
4767;BME280;2397;53.576;9.746;2023-03-03T01:28:57;102441.75;;;-0.12;100.00
4767;BME280;2397;53.576;9.746;2023-03-03T01:31:24;102439.72;;;-0.06;100.00
4767;BME280;2397;53.576;9.746;2023-03-03T01:33:50;102434.66;;;0.05;100.00
4767;BME280;2397;53.576;9.746;2023-03-03T01:36:22;102422.16;;;-0.03;100.00
4767;BME280;2397;53.576;9.746;2023-03-03T01:38:49;102419.09;;;-0.09;100.00
4767;BME280;2397;53.576;9.746;2023-03-03T01:41:16;102415.91;;;-0.16;100.00
4767;BME280;2397;53.576;9.746;2023-03-03T01:43:47;102420.09;;;-0.17;100.00
4767;BME280;2397;53.576;9.746;2023-03-03T01:48:52;102423.03;;;-0.23;100.00
4767;BME280;2397;53.576;9.746;2023-03-03T01:51:26;102424.31;;;-0.17;100.00
4767;BME280;2397;53.576;9.746;2023-03-03T01:54:00;102411.47;;;-0.19;100.00
4767;BME280;2397;53.576;9.746;2023-03-03T01:56:28;102419.47;;;-0.25;100.00
4767;BME280;2397;53.576;9.746;2023-03-03T02:01:48;102414.25;;;-0.26;100.00
4767;BME280;2397;53.576;9.746;2023-03-03T02:04:16;102413.34;;;-0.27;100.00
4767;BME280;2397;53.576;9.746;2023-03-03T02:06:46;102416.00;;;-0.25;100.00
4767;BME280;2397;53.576;9.746;2023-03-03T02:09:28;102418.72;;;-0.24;100.00
4767;BME280;2397;53.576;9.746;2023-03-03T02:12:02;102412.72;;;-0.24;100.00
4767;BME280;2397;53.576;9.746;2023-03-03T02:14:30;102413.34;;;-0.27;100.00
4767;BME280;2397;53.576;9.746;2023-03-03T02:16:56;102410.41;;;-0.31;100.00
4767;BME280;2397;53.576;9.746;2023-03-03T02:19:42;102405.69;;;-0.37;100.00
4767;BME280;2397;53.576;9.746;2023-03-03T02:22:14;102412.06;;;-0.42;100.00
4767;BME280;2397;53.576;9.746;2023-03-03T02:24:56;102411.06;;;-0.34;100.00
4767;BME280;2397;53.576;9.746;2023-03-03T02:27:27;102407.00;;;-0.32;100.00
4767;BME280;2397;53.576;9.746;2023-03-03T02:29:55;102412.84;;;-0.23;100.00
4767;BME280;2397;53.576;9.746;2023-03-03T02:32:21;102417.06;;;-0.23;100.00
4767;BME280;2397;53.576;9.746;2023-03-03T02:34:49;102422.13;;;-0.23;100.00
4767;BME280;2397;53.576;9.746;2023-03-03T02:37:18;102419.31;;;-0.37;100.00
4767;BME280;2397;53.576;9.746;2023-03-03T02:39:45;102410.38;;;-0.52;100.00
4767;BME280;2397;53.576;9.746;2023-03-03T02:42:13;102412.41;;;-0.48;100.00
4767;BME280;2397;53.576;9.746;2023-03-03T02:44:42;102415.72;;;-0.49;100.00
4767;BME280;2397;53.576;9.746;2023-03-03T02:47:08;102413.16;;;-0.49;100.00
4767;BME280;2397;53.576;9.746;2023-03-03T02:49:35;102411.94;;;-0.44;100.00
4767;BME280;2397;53.576;9.746;2023-03-03T02:52:05;102408.25;;;-0.47;100.00
4767;BME280;2397;53.576;9.746;2023-03-03T02:54:32;102404.56;;;-0.41;100.00
4767;BME280;2397;53.576;9.746;2023-03-03T02:56:59;102403.53;;;-0.43;100.00
4767;BME280;2397;53.576;9.746;2023-03-03T02:59:26;102409.91;;;-0.38;100.00
4767;BME280;2397;53.576;9.746;2023-03-03T03:01:53;102407.34;;;-0.38;100.00
4767;BME280;2397;53.576;9.746;2023-03-03T03:04:22;102408.41;;;-0.36;100.00
4767;BME280;2397;53.576;9.746;2023-03-03T03:06:49;102411.19;;;-0.43;100.00
4767;BME280;2397;53.576;9.746;2023-03-03T03:09:17;102417.75;;;-0.45;100.00
4767;BME280;2397;53.576;9.746;2023-03-03T03:11:44;102413.72;;;-0.43;100.00
4767;BME280;2397;53.576;9.746;2023-03-03T03:14:12;102420.97;;;-0.47;100.00
4767;BME280;2397;53.576;9.746;2023-03-03T03:16:39;102419.03;;;-0.50;100.00
4767;BME280;2397;53.576;9.746;2023-03-03T03:19:06;102431.66;;;-0.41;100.00
4767;BME280;2397;53.576;9.746;2023-03-03T03:21:33;102427.97;;;-0.34;100.00
4767;BME280;2397;53.576;9.746;2023-03-03T03:23:59;102423.00;;;-0.33;100.00
4767;BME280;2397;53.576;9.746;2023-03-03T03:26:26;102432.56;;;-0.30;100.00
4767;BME280;2397;53.576;9.746;2023-03-03T03:28:52;102430.50;;;-0.34;100.00
4767;BME280;2397;53.576;9.746;2023-03-03T03:31:20;102430.00;;;-0.41;100.00
4767;BME280;2397;53.576;9.746;2023-03-03T03:33:46;102426.06;;;-0.47;100.00
4767;BME280;2397;53.576;9.746;2023-03-03T03:36:13;102419.53;;;-0.54;100.00
4767;BME280;2397;53.576;9.746;2023-03-03T03:38:39;102421.34;;;-0.53;100.00
4767;BME280;2397;53.576;9.746;2023-03-03T03:41:06;102423.88;;;-0.53;100.00
4767;BME280;2397;53.576;9.746;2023-03-03T03:43:33;102427.66;;;-0.58;100.00
4767;BME280;2397;53.576;9.746;2023-03-03T03:45:59;102424.09;;;-0.60;100.00
4767;BME280;2397;53.576;9.746;2023-03-03T03:48:27;102420.66;;;-0.61;100.00
4767;BME280;2397;53.576;9.746;2023-03-03T03:50:53;102419.28;;;-0.57;100.00
4767;BME280;2397;53.576;9.746;2023-03-03T03:53:20;102430.59;;;-0.54;100.00
4767;BME280;2397;53.576;9.746;2023-03-03T03:55:46;102431.38;;;-0.55;100.00
4767;BME280;2397;53.576;9.746;2023-03-03T03:58:14;102420.19;;;-0.46;100.00
4767;BME280;2397;53.576;9.746;2023-03-03T04:00:43;102418.00;;;-0.52;100.00
4767;BME280;2397;53.576;9.746;2023-03-03T04:03:10;102421.81;;;-0.57;100.00
4767;BME280;2397;53.576;9.746;2023-03-03T04:05:36;102413.69;;;-0.53;100.00
4767;BME280;2397;53.576;9.746;2023-03-03T04:08:03;102409.72;;;-0.60;100.00
4767;BME280;2397;53.576;9.746;2023-03-03T04:10:29;102402.84;;;-0.61;100.00
4767;BME280;2397;53.576;9.746;2023-03-03T04:12:56;102406.81;;;-0.54;100.00
4767;BME280;2397;53.576;9.746;2023-03-03T04:15:22;102409.88;;;-0.48;100.00
4767;BME280;2397;53.576;9.746;2023-03-03T04:17:48;102405.84;;;-0.46;100.00
4767;BME280;2397;53.576;9.746;2023-03-03T04:20:15;102403.53;;;-0.43;100.00
4767;BME280;2397;53.576;9.746;2023-03-03T04:22:42;102397.66;;;-0.52;100.00
4767;BME280;2397;53.576;9.746;2023-03-03T04:25:14;102399.31;;;-0.52;100.00
4767;BME280;2397;53.576;9.746;2023-03-03T04:27:41;102399.69;;;-0.48;100.00
4767;BME280;2397;53.576;9.746;2023-03-03T04:30:09;102398.47;;;-0.43;100.00
4767;BME280;2397;53.576;9.746;2023-03-03T04:32:36;102392.06;;;-0.58;100.00
4767;BME280;2397;53.576;9.746;2023-03-03T04:35:02;102397.63;;;-0.62;100.00
4767;BME280;2397;53.576;9.746;2023-03-03T04:37:35;102397.75;;;-0.61;100.00
4767;BME280;2397;53.576;9.746;2023-03-03T04:40:03;102402.00;;;-0.51;100.00
4767;BME280;2397;53.576;9.746;2023-03-03T04:42:29;102404.28;;;-0.44;100.00
4767;BME280;2397;53.576;9.746;2023-03-03T04:44:56;102405.69;;;-0.37;100.00
4767;BME280;2397;53.576;9.746;2023-03-03T04:47:22;102399.22;;;-0.44;100.00
4767;BME280;2397;53.576;9.746;2023-03-03T04:49:49;102403.81;;;-0.40;100.00
4767;BME280;2397;53.576;9.746;2023-03-03T04:52:15;102394.00;;;-0.35;100.00
4767;BME280;2397;53.576;9.746;2023-03-03T04:54:42;102390.72;;;-0.34;100.00
4767;BME280;2397;53.576;9.746;2023-03-03T04:57:08;102392.47;;;-0.33;100.00
4767;BME280;2397;53.576;9.746;2023-03-03T04:59:34;102396.16;;;-0.40;100.00
4767;BME280;2397;53.576;9.746;2023-03-03T05:02:02;102400.59;;;-0.37;100.00
4767;BME280;2397;53.576;9.746;2023-03-03T05:04:30;102397.44;;;-0.34;100.00
4767;BME280;2397;53.576;9.746;2023-03-03T05:06:56;102395.69;;;-0.36;100.00
4767;BME280;2397;53.576;9.746;2023-03-03T05:09:23;102407.75;;;-0.33;100.00
4767;BME280;2397;53.576;9.746;2023-03-03T05:11:49;102405.84;;;-0.36;100.00
4767;BME280;2397;53.576;9.746;2023-03-03T05:14:16;102400.75;;;-0.36;100.00
4767;BME280;2397;53.576;9.746;2023-03-03T05:16:43;102409.41;;;-0.33;100.00
4767;BME280;2397;53.576;9.746;2023-03-03T05:19:09;102416.78;;;-0.37;100.00
4767;BME280;2397;53.576;9.746;2023-03-03T05:21:36;102409.63;;;-0.41;100.00
4767;BME280;2397;53.576;9.746;2023-03-03T05:24:03;102408.50;;;-0.44;100.00
4767;BME280;2397;53.576;9.746;2023-03-03T05:26:29;102406.84;;;-0.44;100.00
4767;BME280;2397;53.576;9.746;2023-03-03T05:28:56;102416.00;;;-0.46;100.00
4767;BME280;2397;53.576;9.746;2023-03-03T05:31:22;102406.59;;;-0.47;100.00
4767;BME280;2397;53.576;9.746;2023-03-03T05:33:49;102407.59;;;-0.45;100.00
4767;BME280;2397;53.576;9.746;2023-03-03T05:36:15;102411.19;;;-0.43;100.00
4767;BME280;2397;53.576;9.746;2023-03-03T05:38:42;102407.84;;;-0.42;100.00
4767;BME280;2397;53.576;9.746;2023-03-03T05:41:08;102408.41;;;-0.36;100.00
4767;BME280;2397;53.576;9.746;2023-03-03T05:43:34;102409.16;;;-0.37;100.00
4767;BME280;2397;53.576;9.746;2023-03-03T05:46:01;102410.53;;;-0.40;100.00
4767;BME280;2397;53.576;9.746;2023-03-03T05:48:28;102413.19;;;-0.39;100.00
4767;BME280;2397;53.576;9.746;2023-03-03T05:50:57;102418.56;;;-0.36;100.00
4767;BME280;2397;53.576;9.746;2023-03-03T05:53:26;102417.66;;;-0.36;100.00
4767;BME280;2397;53.576;9.746;2023-03-03T05:55:53;102417.66;;;-0.36;100.00
4767;BME280;2397;53.576;9.746;2023-03-03T05:58:20;102420.47;;;-0.33;100.00
4767;BME280;2397;53.576;9.746;2023-03-03T06:00:46;102413.75;;;-0.32;100.00
4767;BME280;2397;53.576;9.746;2023-03-03T06:03:13;102414.50;;;-0.33;100.00
4767;BME280;2397;53.576;9.746;2023-03-03T06:05:39;102421.88;;;-0.26;100.00
4767;BME280;2397;53.576;9.746;2023-03-03T06:08:06;102422.00;;;-0.35;100.00
4767;BME280;2397;53.576;9.746;2023-03-03T06:10:32;102426.34;;;-0.34;100.00
4767;BME280;2397;53.576;9.746;2023-03-03T06:12:58;102417.75;;;-0.45;100.00
4767;BME280;2397;53.576;9.746;2023-03-03T06:15:25;102429.22;;;-0.50;100.00
4767;BME280;2397;53.576;9.746;2023-03-03T06:17:52;102419.03;;;-0.50;100.00
4767;BME280;2397;53.576;9.746;2023-03-03T06:20:18;102439.50;;;-0.59;100.00
4767;BME280;2397;53.576;9.746;2023-03-03T06:22:45;102435.16;;;-0.60;100.00
4767;BME280;2397;53.576;9.746;2023-03-03T06:25:11;102439.13;;;-0.53;100.00
4767;BME280;2397;53.576;9.746;2023-03-03T06:27:38;102451.88;;;-0.43;100.00
4767;BME280;2397;53.576;9.746;2023-03-03T06:30:05;102456.19;;;-0.42;100.00
4767;BME280;2397;53.576;9.746;2023-03-03T06:32:31;102453.13;;;-0.48;100.00
4767;BME280;2397;53.576;9.746;2023-03-03T06:34:58;102461.00;;;-0.45;100.00
4767;BME280;2397;53.576;9.746;2023-03-03T06:37:24;102445.63;;;-0.46;100.00
4767;BME280;2397;53.576;9.746;2023-03-03T06:39:50;102454.78;;;-0.48;100.00
4767;BME280;2397;53.576;9.746;2023-03-03T06:42:18;102459.75;;;-0.50;100.00
4767;BME280;2397;53.576;9.746;2023-03-03T06:44:45;102459.75;;;-0.50;100.00
4767;BME280;2397;53.576;9.746;2023-03-03T06:47:11;102457.59;;;-0.45;100.00
4767;BME280;2397;53.576;9.746;2023-03-03T06:49:38;102473.47;;;-0.48;100.00
4767;BME280;2397;53.576;9.746;2023-03-03T06:52:11;102467.41;;;-0.40;100.00
4767;BME280;2397;53.576;9.746;2023-03-03T06:54:38;102460.16;;;-0.35;100.00
4767;BME280;2397;53.576;9.746;2023-03-03T06:59:42;102476.31;;;-0.34;100.00
4767;BME280;2397;53.576;9.746;2023-03-03T07:02:15;102467.91;;;-0.44;100.00
4767;BME280;2397;53.576;9.746;2023-03-03T07:04:42;102475.00;;;-0.50;100.00
4767;BME280;2397;53.576;9.746;2023-03-03T07:09:45;102471.41;;;-0.52;100.00
4767;BME280;2397;53.576;9.746;2023-03-03T07:12:21;102471.25;;;-0.64;100.00
4767;BME280;2397;53.576;9.746;2023-03-03T07:15:14;102467.31;;;-0.71;100.00
4767;BME280;2397;53.576;9.746;2023-03-03T07:17:43;102481.50;;;-0.73;100.00
4767;BME280;2397;53.576;9.746;2023-03-03T07:20:18;102483.31;;;-0.72;100.00
4767;BME280;2397;53.576;9.746;2023-03-03T07:22:45;102487.25;;;-0.75;100.00
4767;BME280;2397;53.576;9.746;2023-03-03T07:25:21;102496.16;;;-0.70;100.00
4767;BME280;2397;53.576;9.746;2023-03-03T07:27:52;102486.16;;;-0.58;100.00
4767;BME280;2397;53.576;9.746;2023-03-03T07:30:28;102492.47;;;-0.44;100.00
4767;BME280;2397;53.576;9.746;2023-03-03T07:32:57;102498.31;;;-0.45;100.00
4767;BME280;2397;53.576;9.746;2023-03-03T07:37:57;102489.25;;;-0.42;100.00
4767;BME280;2397;53.576;9.746;2023-03-03T07:40:34;102488.75;;;-0.48;100.00
4767;BME280;2397;53.576;9.746;2023-03-03T07:48:40;102490.56;;;-0.37;100.00
4767;BME280;2397;53.576;9.746;2023-03-03T07:51:28;102494.91;;;-0.36;100.00
4767;BME280;2397;53.576;9.746;2023-03-03T07:54:14;102496.44;;;-0.27;100.00
4767;BME280;2397;53.576;9.746;2023-03-03T07:56:43;102496.56;;;-0.26;100.00
4767;BME280;2397;53.576;9.746;2023-03-03T07:59:24;102497.31;;;-0.27;100.00
4767;BME280;2397;53.576;9.746;2023-03-03T08:01:55;102490.22;;;-0.31;100.00
4767;BME280;2397;53.576;9.746;2023-03-03T08:04:43;102498.97;;;-0.27;100.00
4767;BME280;2397;53.576;9.746;2023-03-03T08:07:17;102502.69;;;-0.24;100.00
4767;BME280;2397;53.576;9.746;2023-03-03T08:09:59;102495.19;;;-0.22;100.00
4767;BME280;2397;53.576;9.746;2023-03-03T08:12:36;102493.53;;;-0.22;100.00
4767;BME280;2397;53.576;9.746;2023-03-03T08:15:22;102489.97;;;-0.13;100.00
4767;BME280;2397;53.576;9.746;2023-03-03T08:17:50;102484.25;;;-0.11;100.00
4767;BME280;2397;53.576;9.746;2023-03-03T08:20:38;102484.00;;;-0.04;100.00
4767;BME280;2397;53.576;9.746;2023-03-03T08:23:07;102478.44;;;0.01;100.00
4767;BME280;2397;53.576;9.746;2023-03-03T08:25:33;102480.72;;;0.08;100.00
4767;BME280;2397;53.576;9.746;2023-03-03T08:28:00;102483.16;;;0.16;100.00
4767;BME280;2397;53.576;9.746;2023-03-03T08:30:26;102481.25;;;0.14;100.00
4767;BME280;2397;53.576;9.746;2023-03-03T08:32:52;102485.03;;;0.09;100.00
4767;BME280;2397;53.576;9.746;2023-03-03T08:35:19;102492.66;;;0.09;100.00
4767;BME280;2397;53.576;9.746;2023-03-03T08:37:46;102484.41;;;0.11;100.00
4767;BME280;2397;53.576;9.746;2023-03-03T08:40:12;102484.78;;;0.16;100.00
4767;BME280;2397;53.576;9.746;2023-03-03T08:42:39;102476.78;;;0.22;100.00
4767;BME280;2397;53.576;9.746;2023-03-03T08:45:05;102469.13;;;0.22;100.00
4767;BME280;2397;53.576;9.746;2023-03-03T08:47:32;102472.69;;;0.24;100.00
4767;BME280;2397;53.576;9.746;2023-03-03T08:49:58;102470.00;;;0.32;100.00
4767;BME280;2397;53.576;9.746;2023-03-03T08:52:25;102468.75;;;0.38;100.00
4767;BME280;2397;53.576;9.746;2023-03-03T08:54:51;102474.59;;;0.47;100.00
4767;BME280;2397;53.576;9.746;2023-03-03T08:57:18;102466.31;;;0.49;100.00
4767;BME280;2397;53.576;9.746;2023-03-03T08:59:45;102464.16;;;0.44;100.00
4767;BME280;2397;53.576;9.746;2023-03-03T09:02:13;102466.34;;;0.39;100.00
4767;BME280;2397;53.576;9.746;2023-03-03T09:04:39;102469.88;;;0.41;100.00
4767;BME280;2397;53.576;9.746;2023-03-03T09:07:05;102478.56;;;0.43;100.00
4767;BME280;2397;53.576;9.746;2023-03-03T09:09:32;102473.84;;;0.48;100.00
4767;BME280;2397;53.576;9.746;2023-03-03T09:12:05;102477.53;;;0.51;100.00
4767;BME280;2397;53.576;9.746;2023-03-03T09:14:38;102479.31;;;0.52;100.00
4767;BME280;2397;53.576;9.746;2023-03-03T09:17:24;102478.44;;;0.52;100.00
4767;BME280;2397;53.576;9.746;2023-03-03T09:19:55;102483.41;;;0.61;100.00
4767;BME280;2397;53.576;9.746;2023-03-03T09:22:25;102490.88;;;0.59;100.00
4767;BME280;2397;53.576;9.746;2023-03-03T09:24:53;102491.81;;;0.60;100.00
4767;BME280;2397;53.576;9.746;2023-03-03T09:27:27;102485.53;;;0.56;100.00
4767;BME280;2397;53.576;9.746;2023-03-03T09:29:56;102493.59;;;0.50;100.00
4767;BME280;2397;53.576;9.746;2023-03-03T09:32:38;102490.63;;;0.56;100.00
4767;BME280;2397;53.576;9.746;2023-03-03T09:35:36;102485.03;;;0.60;100.00
4767;BME280;2397;53.576;9.746;2023-03-03T09:38:16;102495.47;;;0.63;100.00
4767;BME280;2397;53.576;9.746;2023-03-03T09:46:42;102498.25;;;0.77;100.00
4767;BME280;2397;53.576;9.746;2023-03-03T09:49:30;102496.47;;;0.86;100.00
4767;BME280;2397;53.576;9.746;2023-03-03T09:52:21;102489.84;;;0.88;100.00
4767;BME280;2397;53.576;9.746;2023-03-03T09:55:25;102496.81;;;1.01;100.00
4767;BME280;2397;53.576;9.746;2023-03-03T10:01:09;102498.44;;;1.11;100.00
4767;BME280;2397;53.576;9.746;2023-03-03T10:09:31;102503.78;;;1.14;100.00
4767;BME280;2397;53.576;9.746;2023-03-03T10:12:26;102499.03;;;1.18;100.00
4767;BME280;2397;53.576;9.746;2023-03-03T10:23:17;102491.16;;;1.48;100.00
4767;BME280;2397;53.576;9.746;2023-03-03T10:26:03;102490.28;;;1.47;100.00
4767;BME280;2397;53.576;9.746;2023-03-03T10:28:44;102493.19;;;1.52;100.00
4767;BME280;2397;53.576;9.746;2023-03-03T10:31:47;102489.69;;;1.62;100.00
4767;BME280;2397;53.576;9.746;2023-03-03T10:34:22;102488.50;;;1.68;100.00
4767;BME280;2397;53.576;9.746;2023-03-03T10:37:31;102492.44;;;1.75;100.00
4767;BME280;2397;53.576;9.746;2023-03-03T10:40:15;102480.66;;;1.77;100.00
4767;BME280;2397;53.576;9.746;2023-03-03T10:45:40;102481.34;;;1.86;100.00
4767;BME280;2397;53.576;9.746;2023-03-03T10:53:31;102478.97;;;2.00;100.00
4767;BME280;2397;53.576;9.746;2023-03-03T10:59:46;102474.59;;;2.09;100.00
4767;BME280;2397;53.576;9.746;2023-03-03T11:02:21;102468.03;;;2.13;100.00
4767;BME280;2397;53.576;9.746;2023-03-03T11:05:01;102463.50;;;2.20;100.00
4767;BME280;2397;53.576;9.746;2023-03-03T11:07:38;102459.50;;;2.24;100.00
4767;BME280;2397;53.576;9.746;2023-03-03T11:10:23;102462.75;;;2.33;100.00
4767;BME280;2397;53.576;9.746;2023-03-03T11:15:40;102459.56;;;2.48;100.00
4767;BME280;2397;53.576;9.746;2023-03-03T11:21:06;102456.00;;;2.69;100.00
4767;BME280;2397;53.576;9.746;2023-03-03T11:31:56;102435.31;;;2.90;100.00
4767;BME280;2397;53.576;9.746;2023-03-03T11:35:05;102429.22;;;2.99;100.00
4767;BME280;2397;53.576;9.746;2023-03-03T11:37:50;102436.31;;;3.15;100.00
4767;BME280;2397;53.576;9.746;2023-03-03T11:46:08;102421.56;;;3.37;100.00
4767;BME280;2397;53.576;9.746;2023-03-03T11:48:53;102411.84;;;3.44;100.00
4767;BME280;2397;53.576;9.746;2023-03-03T11:51:31;102412.50;;;3.54;100.00
4767;BME280;2397;53.576;9.746;2023-03-03T11:54:06;102406.28;;;3.75;100.00
4767;BME280;2397;53.576;9.746;2023-03-03T11:56:47;102401.47;;;3.80;100.00
4767;BME280;2397;53.576;9.746;2023-03-03T12:05:17;102391.94;;;3.91;100.00
4767;BME280;2397;53.576;9.746;2023-03-03T12:08:29;102387.81;;;3.93;100.00
4767;BME280;2397;53.576;9.746;2023-03-03T12:11:15;102382.19;;;3.85;100.00
4767;BME280;2397;53.576;9.746;2023-03-03T12:13:52;102382.88;;;3.82;100.00
4767;BME280;2397;53.576;9.746;2023-03-03T12:16:40;102373.50;;;3.83;100.00
4767;BME280;2397;53.576;9.746;2023-03-03T12:22:31;102376.81;;;4.07;100.00
4767;BME280;2397;53.576;9.746;2023-03-03T12:25:17;102359.09;;;4.24;100.00
4767;BME280;2397;53.576;9.746;2023-03-03T12:28:12;102364.25;;;4.37;100.00
4767;BME280;2397;53.576;9.746;2023-03-03T12:30:53;102359.03;;;4.49;100.00
4767;BME280;2397;53.576;9.746;2023-03-03T12:33:53;102359.22;;;4.52;100.00
4767;BME280;2397;53.576;9.746;2023-03-03T12:39:39;102343.38;;;4.99;100.00
4767;BME280;2397;53.576;9.746;2023-03-03T12:42:37;102343.84;;;5.07;100.00
4767;BME280;2397;53.576;9.746;2023-03-03T12:45:55;102340.38;;;5.06;100.00
4767;BME280;2397;53.576;9.746;2023-03-03T12:48:37;102336.53;;;5.00;100.00
4767;BME280;2397;53.576;9.746;2023-03-03T12:56:25;102327.69;;;4.95;100.00
4767;BME280;2397;53.576;9.746;2023-03-03T12:59:03;102326.00;;;4.95;100.00
4767;BME280;2397;53.576;9.746;2023-03-03T13:07:26;102320.09;;;4.96;100.00
4767;BME280;2397;53.576;9.746;2023-03-03T13:10:20;102323.53;;;4.97;100.00
4767;BME280;2397;53.576;9.746;2023-03-03T13:13:04;102316.69;;;4.97;100.00
4767;BME280;2397;53.576;9.746;2023-03-03T13:15:38;102320.38;;;5.01;100.00
4767;BME280;2397;53.576;9.746;2023-03-03T13:18:24;102332.50;;;5.03;100.00
4767;BME280;2397;53.576;9.746;2023-03-03T13:24:15;102318.13;;;4.92;100.00
4767;BME280;2397;53.576;9.746;2023-03-03T13:27:04;102315.91;;;4.98;100.00
4767;BME280;2397;53.576;9.746;2023-03-03T13:29:40;102311.28;;;4.92;100.00
4767;BME280;2397;53.576;9.746;2023-03-03T13:32:16;102311.28;;;4.92;100.00
4767;BME280;2397;53.576;9.746;2023-03-03T13:37:41;102309.72;;;4.95;100.00
4767;BME280;2397;53.576;9.746;2023-03-03T13:43:03;102300.75;;;5.16;100.00
4767;BME280;2397;53.576;9.746;2023-03-03T13:51:34;102297.63;;;5.07;100.00
4767;BME280;2397;53.576;9.746;2023-03-03T13:54:14;102300.97;;;5.06;100.00
4767;BME280;2397;53.576;9.746;2023-03-03T13:56:47;102292.03;;;4.99;100.00
4767;BME280;2397;53.576;9.746;2023-03-03T14:05:29;102292.31;;;5.04;100.00
4767;BME280;2397;53.576;9.746;2023-03-03T14:08:23;102294.78;;;5.02;100.00
4767;BME280;2397;53.576;9.746;2023-03-03T14:13:45;102277.09;;;5.07;100.00
4767;BME280;2397;53.576;9.746;2023-03-03T14:16:21;102267.44;;;5.03;100.00
4767;BME280;2397;53.576;9.746;2023-03-03T14:18:58;102275.13;;;5.03;100.00
4767;BME280;2397;53.576;9.746;2023-03-03T14:24:28;102259.13;;;5.07;100.00
4767;BME280;2397;53.576;9.746;2023-03-03T14:26:57;102255.22;;;5.14;100.00
4767;BME280;2397;53.576;9.746;2023-03-03T14:31:54;102254.53;;;5.16;100.00
4767;BME280;2397;53.576;9.746;2023-03-03T14:34:36;102251.28;;;5.19;100.00
4767;BME280;2397;53.576;9.746;2023-03-03T14:37:41;102251.78;;;5.13;100.00
4767;BME280;2397;53.576;9.746;2023-03-03T14:42:37;102245.88;;;5.14;100.00
4767;BME280;2397;53.576;9.746;2023-03-03T14:45:37;102246.47;;;5.10;100.00
4767;BME280;2397;53.576;9.746;2023-03-03T14:48:20;102231.06;;;5.10;100.00
4767;BME280;2397;53.576;9.746;2023-03-03T14:53:33;102227.53;;;5.08;100.00
4767;BME280;2397;53.576;9.746;2023-03-03T14:56:24;102220.63;;;5.07;100.00
4767;BME280;2397;53.576;9.746;2023-03-03T14:58:52;102217.47;;;5.11;100.00
4767;BME280;2397;53.576;9.746;2023-03-03T15:01:30;102217.47;;;5.11;100.00
4767;BME280;2397;53.576;9.746;2023-03-03T15:04:02;102212.16;;;5.08;100.00
4767;BME280;2397;53.576;9.746;2023-03-03T15:06:39;102218.50;;;5.00;100.00
4767;BME280;2397;53.576;9.746;2023-03-03T15:12:20;102208.03;;;4.97;100.00
4767;BME280;2397;53.576;9.746;2023-03-03T15:14:52;102208.91;;;4.97;100.00
4767;BME280;2397;53.576;9.746;2023-03-03T15:17:35;102201.56;;;4.88;100.00
4767;BME280;2397;53.576;9.746;2023-03-03T15:31:36;102193.50;;;4.82;100.00
4767;BME280;2397;53.576;9.746;2023-03-03T15:34:29;102192.53;;;4.80;100.00
4767;BME280;2397;53.576;9.746;2023-03-03T15:39:53;102187.47;;;4.82;100.00
4767;BME280;2397;53.576;9.746;2023-03-03T15:42:32;102189.97;;;4.80;100.00
4767;BME280;2397;53.576;9.746;2023-03-03T15:45:18;102189.25;;;4.83;100.00
4767;BME280;2397;53.576;9.746;2023-03-03T15:51:01;102181.09;;;4.75;100.00
4767;BME280;2397;53.576;9.746;2023-03-03T15:53:41;102175.06;;;4.74;100.00
4767;BME280;2397;53.576;9.746;2023-03-03T15:56:38;102189.41;;;4.71;100.00
4767;BME280;2397;53.576;9.746;2023-03-03T16:04:36;102183.09;;;4.66;100.00
4767;BME280;2397;53.576;9.746;2023-03-03T16:13:07;102177.22;;;4.53;100.00
4767;BME280;2397;53.576;9.746;2023-03-03T16:15:47;102175.34;;;4.51;100.00
4767;BME280;2397;53.576;9.746;2023-03-03T16:23:57;102176.22;;;4.51;100.00
4767;BME280;2397;53.576;9.746;2023-03-03T16:26:35;102176.03;;;4.48;100.00